Moose Lake, MN (55767)

9:21 PM CDT on August 29, 2016 (GMT -0500)
Coffee Lake | | Change Station

Elev 1060 ft 46.43 °N, 92.78 °W | Updated 4 seconds ago

Thunderstorm
Thunderstorm
68.7 °F
Feels Like 68.7 °F
N
0.0
Wind Variable Wind from SW
Gusts 0.0 mph

Today
High -- | Low -- °F
--% Chance of Precip.
Yesterday
High -- | Low -- °F
Precip. -- in
Pressure 30.13 in
Visibility 10.0 miles
Clouds Scattered Clouds 3600 ft
Scattered Clouds 4600 ft
Mostly Cloudy 5500 ft
Dew Point 67 °F
Humidity 93%
Rainfall 0.33 in
Snow Depth Not available.
6:28 AM 7:54 PM
Waning Crescent, 6% visible
METAR KMZH 300214Z AUTO 19003KT 10SM TS SCT036 SCT046 BKN055 20/17 A3013 RMK AO2 LTG DSNT ALQS
Pressure 30.13 in
Visibility 10.0 miles
Clouds Scattered Clouds 3600 ft
Scattered Clouds 4600 ft
Mostly Cloudy 5500 ft
Dew Point 67 °F
Humidity 93%
Rainfall 0.33 in
Snow Depth Not available.
6:28 AM 7:54 PM
Waning Crescent, 6% visible
METAR KMZH 300214Z AUTO 19003KT 10SM TS SCT036 SCT046 BKN055 20/17 A3013 RMK AO2 LTG DSNT ALQS

10-Day Weather Forecast

Almanac

Astronomy

Aug. 29, 2016 Rise Set
Actual Time
Civil Twilight
Nautical Twilight
Astronomical Twilight
Moon
Length of Visible Light
Length of Day
Tomorrow will be .
, % of the Moon is Illuminated

Today's Extremes

State Highs State Lows

Community

WunderPhotos

Upload Photos

1,935,720 photos uploaded!

WunderBlog® & News

Nearby

Air Quality

  Air Quality AQ Index Pollutant
Not available.

Snow Depth

Station Depth Elevation

Earthquake Activity

City Distance Mag. Time & Date
Minimum magnitude displayed is 2.5.

Coastal Water Temperatures

Place Temperature

Stations

Nearby Weather Stations

Station Location Temp. Windchill Dew Point Humidity Wind Precip. Elev Updated Type
                   

Watches & Warnings

There are currently no watches in effect.